Patterson, California
Current Conditions -  °F | °C
As of 10:53 AM on Sunday 23 Nov 2014 (Local Time) from KMOD Reporting Station
Clear Clear  
Wind Chill: 57°   Ceiling: Unl
Heat Index: 57°   Visibility: 10mi
Dew Point: 43°   Wind: 10mph
Humidity: 59%   Direction: 300°WNW
Pressure: 30.33"   Gusts: NA
Location:  37.47°N, 121.12°W
Report Text: KMOD 231853Z 30009KT 10SM CLR 14/06 A3033 RMK AO2 SLP272 T01390061 $
Loading
Personal Weather Stations






























Interactive Weather Map New forecast layout! Learn more

10-Day Weather Forecast

Advertisements
Track Severe Weather on mobile